Time;durP1;ratioP1;P1;durP2;ratioP2;P2;SDS_P1;SDS_P2;PMS_P1;PMS_P2;Temp;Humidity;BMP_temperature;BMP_pressure;BME280_temperature;BME280_humidity;BME280_pressure;Samples;Min_cycle;Max_cycle;Signal;HPM_P1;HPM_P2
2023/02/28 00:01:24;;;;;;;3.92;2.63;;;;;;;-2.58;100.00;99621.25;15317936;19;20014;-78
2023/02/28 00:06:51;;;;;;;3.90;2.95;;;;;;;-2.55;100.00;99622.03;15311755;19;20011;-79
2023/02/28 00:12:16;;;;;;;4.70;2.70;;;;;;;-2.52;100.00;99619.25;15310331;19;20406;-78
2023/02/28 00:17:41;;;;;;;3.17;2.70;;;;;;;-2.51;100.00;99621.00;15307803;19;20010;-78
2023/02/28 00:23:08;;;;;;;4.63;2.70;;;;;;;-2.48;100.00;99610.34;15310189;19;20322;-79
2023/02/28 00:28:33;;;;;;;3.22;2.60;;;;;;;-2.44;100.00;99612.91;15323229;19;20027;-79
2023/02/28 00:33:58;;;;;;;2.90;2.60;;;;;;;-2.41;100.00;99612.81;15319765;19;20025;-78
2023/02/28 00:39:25;;;;;;;3.63;3.05;;;;;;;-2.40;100.00;99606.59;15323254;19;20094;-79
2023/02/28 00:44:50;;;;;;;5.57;2.90;;;;;;;-2.40;100.00;99598.66;15337911;19;20015;-79
2023/02/28 00:50:15;;;;;;;3.10;2.60;;;;;;;-2.38;100.00;99607.41;15326568;19;20015;-79
2023/02/28 00:55:43;;;;;;;4.90;2.70;;;;;;;-2.35;100.00;99602.03;15312897;19;20033;-80
2023/02/28 01:01:08;;;;;;;5.00;2.95;;;;;;;-2.35;100.00;99602.88;15315077;19;20021;-78
2023/02/28 01:06:32;;;;;;;4.93;2.85;;;;;;;-2.36;100.00;99602.94;15317849;19;20805;-80
2023/02/28 01:11:59;;;;;;;3.78;2.78;;;;;;;-2.34;100.00;99598.47;15315432;19;20010;-81
2023/02/28 01:17:24;;;;;;;3.28;2.97;;;;;;;-2.35;100.00;99594.97;15310093;19;20018;-80
2023/02/28 01:22:56;;;;;;;4.00;2.97;;;;;;;-2.35;100.00;99581.78;15309029;19;20025;-80
2023/02/28 01:28:23;;;;;;;2.60;2.40;;;;;;;-2.33;100.00;99582.59;15309804;19;20018;-80
2023/02/28 01:33:49;;;;;;;2.70;2.10;;;;;;;-2.31;100.00;99574.63;15317274;19;20039;-80
2023/02/28 01:39:14;;;;;;;3.47;2.30;;;;;;;-2.28;100.00;99579.78;15324705;19;20011;-79
2023/02/28 01:45:11;;;;;;;2.67;2.30;;;;;;;-2.28;100.00;99571.88;15336613;19;20018;-79
2023/02/28 01:50:41;;;;;;;2.40;2.20;;;;;;;-2.23;100.00;99571.72;15336778;19;20151;-80
2023/02/28 01:56:07;;;;;;;3.35;2.17;;;;;;;-2.20;100.00;99568.97;15326694;19;20071;-79
2023/02/28 02:01:35;;;;;;;2.50;2.20;;;;;;;-2.19;100.00;99558.38;15334701;19;20022;-79
2023/02/28 02:07:04;;;;;;;3.70;2.47;;;;;;;-2.19;100.00;99555.75;15338193;19;20014;-79
2023/02/28 02:12:47;;;;;;;3.15;2.40;;;;;;;-2.20;100.00;99554.00;15332113;19;20058;-79
2023/02/28 02:18:23;;;;;;;2.65;1.98;;;;;;;-2.22;100.00;99550.56;15315470;19;20082;-78
2023/02/28 02:24:06;;;;;;;3.58;2.03;;;;;;;-2.20;100.00;99542.56;15303489;19;20011;-78
2023/02/28 02:30:09;;;;;;;4.00;2.30;;;;;;;-2.22;100.00;99537.34;15301487;19;20078;-78
2023/02/28 02:35:46;;;;;;;3.13;2.20;;;;;;;-2.24;100.00;99533.91;15300697;19;20026;-80
2023/02/28 02:41:21;;;;;;;3.33;2.42;;;;;;;-2.25;100.00;99540.09;15307929;19;20039;-80
2023/02/28 02:46:51;;;;;;;3.40;2.15;;;;;;;-2.23;100.00;99540.03;15319588;19;20431;-78
2023/02/28 02:52:24;;;;;;;2.55;1.90;;;;;;;-2.28;100.00;99536.72;15304768;19;20569;-79
2023/02/28 02:57:56;;;;;;;3.63;2.15;;;;;;;-2.32;100.00;99535.94;15307416;19;20074;-79
2023/02/28 03:03:28;;;;;;;2.80;2.17;;;;;;;-2.38;100.00;99539.66;15310274;19;20010;-79
2023/02/28 03:08:56;;;;;;;4.18;2.17;;;;;;;-2.41;100.00;99545.03;15309375;19;20019;-81
2023/02/28 03:14:40;;;;;;;3.58;2.13;;;;;;;-2.42;100.00;99547.75;15315646;19;20014;-79
2023/02/28 03:20:15;;;;;;;2.47;1.90;;;;;;;-2.45;100.00;99545.19;15328671;19;20623;-81
2023/02/28 03:26:05;;;;;;;3.85;2.20;;;;;;;-2.49;100.00;99545.28;15334450;19;20553;-78
2023/02/28 03:31:33;;;;;;;3.58;2.00;;;;;;;-2.49;100.00;99550.56;15342771;19;20039;-79
2023/02/28 03:37:02;;;;;;;2.75;2.25;;;;;;;-2.49;100.00;99544.44;15269975;19;20074;-79
2023/02/28 03:42:33;;;;;;;3.53;2.00;;;;;;;-2.54;100.00;99543.72;15311352;19;20022;-79
2023/02/28 03:48:02;;;;;;;2.95;2.30;;;;;;;-2.59;100.00;99551.78;15326495;19;20035;-78
2023/02/28 03:53:32;;;;;;;2.95;1.90;;;;;;;-2.61;100.00;99550.97;15360605;19;20035;-78
2023/02/28 03:59:06;;;;;;;2.35;2.00;;;;;;;-2.65;100.00;99544.09;15331101;19;20025;-79
2023/02/28 04:04:31;;;;;;;3.53;2.00;;;;;;;-2.69;100.00;99553.84;15320733;19;20026;-79
2023/02/28 04:09:56;;;;;;;3.55;1.80;;;;;;;-2.73;100.00;99564.56;15308030;19;20026;-78
2023/02/28 04:15:27;;;;;;;2.78;2.00;;;;;;;-2.82;100.00;99565.69;15295831;19;20015;-79
2023/02/28 04:20:51;;;;;;;2.30;1.90;;;;;;;-2.95;100.00;99563.47;15298582;19;20489;-77
2023/02/28 04:26:16;;;;;;;3.38;2.17;;;;;;;-2.98;100.00;99562.69;15288884;19;20484;-76
2023/02/28 04:31:43;;;;;;;4.35;2.13;;;;;;;-3.01;100.00;99568.94;15295548;19;20011;-78
2023/02/28 04:37:08;;;;;;;3.17;2.28;;;;;;;-3.03;100.00;99576.00;15292356;19;20036;-76
2023/02/28 04:42:35;;;;;;;4.50;2.30;;;;;;;-3.11;100.00;99573.59;15302994;19;21008;-77
2023/02/28 04:48:03;;;;;;;3.30;2.30;;;;;;;-3.17;100.00;99568.53;15293088;19;20070;-77
2023/02/28 04:53:29;;;;;;;3.13;2.35;;;;;;;-3.20;100.00;99571.25;15292445;19;20023;-77
2023/02/28 04:58:54;;;;;;;3.55;2.55;;;;;;;-3.27;100.00;99567.09;15294406;19;20074;-76
2023/02/28 05:04:21;;;;;;;4.20;2.60;;;;;;;-3.32;100.00;99571.63;15288459;19;20687;-77
2023/02/28 05:09:46;;;;;;;4.35;2.72;;;;;;;-3.44;100.00;99576.34;15298970;19;20026;-77
2023/02/28 05:15:11;;;;;;;3.42;2.40;;;;;;;-3.51;100.00;99574.81;15309653;19;20031;-78
2023/02/28 05:20:38;;;;;;;4.00;2.70;;;;;;;-3.58;100.00;99583.75;15328026;19;20010;-78
2023/02/28 05:26:03;;;;;;;3.35;2.65;;;;;;;-3.60;100.00;99590.88;15324224;19;20011;-79
2023/02/28 05:31:28;;;;;;;4.72;2.70;;;;;;;-3.66;100.00;99594.53;15322585;19;20015;-77
2023/02/28 05:36:55;;;;;;;2.90;2.60;;;;;;;-3.63;100.00;99590.94;15317636;19;20510;-78
2023/02/28 05:42:20;;;;;;;4.05;2.70;;;;;;;-3.65;100.00;99592.75;15318802;19;20028;-78
2023/02/28 05:47:45;;;;;;;4.20;2.80;;;;;;;-3.67;100.00;99594.56;15330446;19;20363;-78
2023/02/28 05:53:12;;;;;;;4.32;2.72;;;;;;;-3.62;100.00;99600.59;15327634;19;20038;-77
2023/02/28 05:58:38;;;;;;;4.85;2.67;;;;;;;-3.63;100.00;99606.75;15306857;19;20414;-77
2023/02/28 06:04:08;;;;;;;3.78;3.15;;;;;;;-3.64;100.00;99602.41;15317886;19;20022;-76
2023/02/28 06:09:27;;;;;;;3.67;3.10;;;;;;;-3.66;100.00;99612.09;15318581;19;20062;-77
2023/02/28 06:14:53;;;;;;;4.25;2.80;;;;;;;-3.66;100.00;99610.34;15296894;19;20018;-77
2023/02/28 06:20:19;;;;;;;3.75;2.95;;;;;;;-3.65;100.00;99619.09;15306986;19;20038;-77
2023/02/28 06:25:49;;;;;;;5.30;3.10;;;;;;;-3.63;100.00;99625.19;15317351;19;20023;-78
2023/02/28 06:31:16;;;;;;;4.80;3.30;;;;;;;-3.63;100.00;99625.19;15324229;19;20038;-78
2023/02/28 06:36:41;;;;;;;3.95;3.20;;;;;;;-3.63;100.00;99635.72;15322276;19;20023;-78
2023/02/28 06:42:10;;;;;;;3.80;3.40;;;;;;;-3.63;100.00;99638.38;15314207;19;20031;-78
2023/02/28 06:47:36;;;;;;;4.18;3.47;;;;;;;-3.62;100.00;99655.91;15307290;19;20088;-78
2023/02/28 06:53:01;;;;;;;4.88;3.70;;;;;;;-3.62;100.00;99653.28;15309736;19;20068;-78
2023/02/28 06:58:28;;;;;;;6.43;3.20;;;;;;;-3.56;100.00;99666.25;15317535;19;20458;-79
2023/02/28 07:03:55;;;;;;;5.93;3.50;;;;;;;-3.51;100.00;99667.00;15311309;19;20010;-77
2023/02/28 07:09:20;;;;;;;4.88;3.30;;;;;;;-3.41;100.00;99670.28;15316640;19;20019;-79
2023/02/28 07:14:48;;;;;;;5.68;3.30;;;;;;;-3.29;100.00;99676.97;15313320;19;20078;-79
2023/02/28 07:20:14;;;;;;;4.35;3.42;;;;;;;-3.17;100.00;99678.38;15312094;19;20018;-77
2023/02/28 07:25:46;;;;;;;5.72;3.70;;;;;;;-3.03;100.00;99680.63;15313300;19;20027;-80
2023/02/28 07:31:14;;;;;;;4.50;3.00;;;;;;;-2.90;100.00;99682.00;15321112;19;20010;-78
2023/02/28 07:36:39;;;;;;;5.97;3.20;;;;;;;-2.77;100.00;99671.09;15290343;19;20002;-79
2023/02/28 07:42:10;;;;;;;5.40;3.70;;;;;;;-2.66;100.00;99669.00;15317306;19;20025;-79
2023/02/28 07:47:38;;;;;;;;;;;;;;;-2.61;100.00;99674.97;15327380;19;20023;-74
2023/02/28 07:53:04;;;;;;;4.63;3.67;;;;;;;-2.52;100.00;99677.31;15350382;19;19925;-77
2023/02/28 07:58:33;;;;;;;6.47;3.60;;;;;;;-2.42;100.00;99677.06;15323381;19;20375;-78
2023/02/28 08:04:00;;;;;;;4.15;3.28;;;;;;;-2.31;100.00;99669.66;15326616;19;20014;-77
2023/02/28 08:09:25;;;;;;;5.22;3.58;;;;;;;-2.19;100.00;99673.66;15329504;19;20025;-78
2023/02/28 08:14:50;;;;;;;4.50;3.50;;;;;;;-2.05;100.00;99665.28;15299822;19;20019;-78
2023/02/28 08:20:20;;;;;;;6.70;3.40;;;;;;;-1.93;100.00;99664.88;15312571;19;20031;-78
2023/02/28 08:25:51;;;;;;;5.45;3.20;;;;;;;-1.76;100.00;99658.19;15295111;19;20533;-77
2023/02/28 08:31:19;;;;;;;4.38;3.03;;;;;;;-1.60;100.00;99656.75;15306310;19;20019;-77
2023/02/28 08:36:57;;;;;;;3.60;2.75;;;;;;;-1.45;100.00;99659.72;15342900;19;20014;-76
2023/02/28 08:42:22;;;;;;;4.05;3.10;;;;;;;-1.30;100.00;99656.53;15304221;19;20022;-76
2023/02/28 08:47:46;;;;;;;5.13;3.00;;;;;;;-1.15;100.00;99662.19;15300768;19;20014;-77
2023/02/28 08:53:13;;;;;;;3.60;2.78;;;;;;;-1.01;100.00;99657.25;15293738;19;20379;-77
2023/02/28 08:58:39;;;;;;;4.78;2.90;;;;;;;-0.86;100.00;99657.59;15293993;19;20025;-78
2023/02/28 09:04:04;;;;;;;3.22;2.30;;;;;;;-0.69;100.00;99665.75;15287046;19;20018;-78
2023/02/28 09:09:31;;;;;;;3.33;2.42;;;;;;;-0.56;100.00;99655.53;15299928;19;20043;-80
2023/02/28 09:14:56;;;;;;;2.42;2.15;;;;;;;-0.39;100.00;99652.22;15294965;19;20017;-80
2023/02/28 09:20:21;;;;;;;4.05;2.10;;;;;;;-0.16;100.00;99653.06;15281446;19;20102;-54
2023/02/28 09:25:54;;;;;;;3.05;2.10;;;;;;;-0.01;100.00;99655.09;15281803;19;20497;-50
2023/02/28 09:31:24;;;;;;;2.38;2.05;;;;;;;0.25;100.00;99652.28;15299210;19;20631;-53
2023/02/28 09:36:50;;;;;;;3.33;2.22;;;;;;;0.36;100.00;99654.47;15280026;19;20031;-54
2023/02/28 09:42:30;;;;;;;2.58;1.92;;;;;;;0.52;100.00;99654.66;15282989;19;20026;-50
2023/02/28 09:47:59;;;;;;;3.90;2.00;;;;;;;0.80;100.00;99654.31;15284184;19;20021;-51
2023/02/28 09:53:33;;;;;;;3.63;2.30;;;;;;;1.04;100.00;99647.03;15284324;19;20022;-51
2023/02/28 09:59:15;;;;;;;3.35;2.20;;;;;;;1.00;100.00;99649.91;15287977;19;20022;-49
2023/02/28 10:04:54;;;;;;;3.22;2.22;;;;;;;1.05;100.00;99642.56;15293830;19;20487;-49
2023/02/28 10:10:27;;;;;;;4.15;2.17;;;;;;;1.25;100.00;99639.00;15293597;19;20015;-48
2023/02/28 10:15:56;;;;;;;2.95;2.20;;;;;;;1.48;100.00;99642.34;15294394;19;20677;-49
2023/02/28 10:21:26;;;;;;;3.60;2.20;;;;;;;1.64;100.00;99647.78;15294644;19;20094;-52
2023/02/28 10:26:54;;;;;;;3.03;2.30;;;;;;;1.71;100.00;99643.88;15298881;19;20029;-50
2023/02/28 10:32:28;;;;;;;3.28;2.30;;;;;;;1.89;100.00;99635.97;15289065;19;20017;-52
2023/02/28 10:37:55;;;;;;;3.25;2.05;;;;;;;2.02;100.00;99641.50;15293560;19;20097;-49
2023/02/28 10:43:24;;;;;;;2.40;2.00;;;;;;;1.84;100.00;99650.31;15296553;19;20026;-48
2023/02/28 10:48:54;;;;;;;4.18;2.08;;;;;;;1.48;100.00;99651.19;15273316;19;20028;-50
2023/02/28 10:54:23;;;;;;;3.03;2.20;;;;;;;1.43;100.00;99650.56;15295519;19;20025;-50
2023/02/28 10:59:47;;;;;;;4.07;2.50;;;;;;;1.30;100.00;99642.28;15292136;19;20029;-49
2023/02/28 11:05:32;;;;;;;3.15;2.33;;;;;;;0.95;100.00;99635.97;15288335;19;20041;-50
2023/02/28 11:11:04;;;;;;;3.70;2.30;;;;;;;1.18;100.00;99624.28;15286934;19;20029;-52
2023/02/28 11:16:37;;;;;;;2.17;1.98;;;;;;;1.22;100.00;99624.09;15299044;19;20022;-50
2023/02/28 11:22:09;;;;;;;2.20;1.95;;;;;;;1.23;100.00;99616.97;15294422;19;20022;-47
2023/02/28 11:27:52;;;;;;;3.40;2.40;;;;;;;1.28;100.00;99611.44;15298054;19;20078;-47
2023/02/28 11:33:39;;;;;;;3.10;2.30;;;;;;;1.31;100.00;99619.25;15271693;19;20066;-50
2023/02/28 11:39:13;;;;;;;3.03;2.40;;;;;;;1.32;100.00;99608.56;15283290;19;20025;-51
2023/02/28 11:44:54;;;;;;;3.17;2.30;;;;;;;1.42;100.00;99598.38;15293704;19;20077;-53
2023/02/28 11:50:33;;;;;;;3.60;2.97;;;;;;;1.45;100.00;99603.53;15290127;19;20025;-48
2023/02/28 11:56:11;;;;;;;3.75;2.30;;;;;;;1.59;100.00;99609.97;15289981;19;20253;-55
2023/02/28 12:01:47;;;;;;;4.30;2.63;;;;;;;1.50;100.00;99598.84;15291682;19;20024;-50
2023/02/28 12:07:22;;;;;;;3.35;2.60;;;;;;;1.61;100.00;99605.44;15289041;19;20023;-50
2023/02/28 12:12:59;;;;;;;3.75;2.50;;;;;;;1.70;100.00;99605.00;15283505;19;20361;-49
2023/02/28 12:18:42;;;;;;;4.13;2.67;;;;;;;1.77;100.00;99598.44;15288921;19;20024;-49
2023/02/28 12:24:33;;;;;;;3.40;2.63;;;;;;;1.87;100.00;99590.00;15287380;19;20025;-48
2023/02/28 12:30:06;;;;;;;3.10;2.80;;;;;;;2.02;100.00;99583.91;15288334;19;20019;-49
2023/02/28 12:35:36;;;;;;;4.38;2.78;;;;;;;2.00;100.00;99568.03;15286573;19;20397;-46
2023/02/28 12:41:06;;;;;;;4.65;2.70;;;;;;;2.03;100.00;99572.34;15281410;19;20078;-50
2023/02/28 12:46:39;;;;;;;3.53;2.60;;;;;;;2.25;100.00;99568.56;15286181;19;20014;-48
2023/02/28 12:52:10;;;;;;;2.83;2.45;;;;;;;2.30;100.00;99570.06;15287186;19;20014;-48
2023/02/28 12:57:44;;;;;;;3.55;2.67;;;;;;;2.54;100.00;99559.06;15285335;19;20097;-49
2023/02/28 13:03:41;;;;;;;3.53;2.80;;;;;;;2.59;100.00;99564.97;15284855;19;20379;-50
2023/02/28 13:09:21;;;;;;;3.45;2.72;;;;;;;2.88;100.00;99561.69;15284895;19;20019;-52
2023/02/28 13:14:46;;;;;;;4.30;2.80;;;;;;;3.06;100.00;99550.03;15278094;19;20014;-47
2023/02/28 13:20:23;;;;;;;3.17;2.60;;;;;;;3.28;100.00;99556.81;15283396;19;20017;-49
2023/02/28 13:25:59;;;;;;;4.03;2.83;;;;;;;3.19;100.00;99557.31;15285462;19;20017;-50
2023/02/28 13:31:24;;;;;;;3.05;2.50;;;;;;;2.87;100.00;99552.84;15281292;19;20409;-51
2023/02/28 13:36:51;;;;;;;4.45;2.70;;;;;;;2.92;100.00;99547.25;15285146;19;20733;-50
2023/02/28 13:42:40;;;;;;;4.28;3.05;;;;;;;2.96;100.00;99554.13;15283008;19;20015;-47
2023/02/28 13:48:06;;;;;;;3.25;2.80;;;;;;;3.21;100.00;99552.78;15276980;19;20022;-48
2023/02/28 13:53:54;;;;;;;3.10;2.80;;;;;;;3.46;100.00;99546.91;15284409;19;20078;-52
2023/02/28 13:59:29;;;;;;;3.25;2.80;;;;;;;3.52;100.00;99545.69;15281510;19;20037;-50
2023/02/28 14:05:08;;;;;;;3.70;2.85;;;;;;;3.27;100.00;99539.09;15281275;19;20034;-51
2023/02/28 14:11:07;;;;;;;3.55;2.80;;;;;;;3.46;100.00;99536.25;15279025;19;20029;-52
2023/02/28 14:16:34;;;;;;;3.38;2.80;;;;;;;3.69;100.00;99537.59;15278307;19;20094;-51
2023/02/28 14:22:21;;;;;;;3.72;2.83;;;;;;;3.82;100.00;99535.03;15268823;19;20022;-50
2023/02/28 14:27:58;;;;;;;4.70;2.60;;;;;;;4.10;100.00;99530.75;15279545;19;20022;-50
2023/02/28 14:33:32;;;;;;;2.78;2.35;;;;;;;4.42;100.00;99529.69;15280312;19;20044;-47
2023/02/28 14:39:00;;;;;;;4.30;2.83;;;;;;;4.75;100.00;99517.88;15275898;19;20536;-48
2023/02/28 14:44:30;;;;;;;5.05;2.75;;;;;;;4.97;100.00;99512.03;15283720;19;20074;-48
2023/02/28 14:49:55;;;;;;;4.60;2.90;;;;;;;5.00;100.00;99506.50;15287205;19;20116;-50
2023/02/28 14:55:24;;;;;;;3.30;2.40;;;;;;;4.91;100.00;99513.28;15292105;19;20475;-47
2023/02/28 15:00:53;;;;;;;5.00;2.55;;;;;;;4.75;100.00;99507.22;15289061;19;20039;-50
2023/02/28 15:06:26;;;;;;;3.38;2.60;;;;;;;4.52;100.00;99500.63;15294439;19;20078;-49
2023/02/28 15:11:53;;;;;;;3.55;2.60;;;;;;;4.46;100.00;99507.22;15293102;19;20078;-53
2023/02/28 15:17:32;;;;;;;3.92;2.90;;;;;;;4.44;100.00;99511.78;15291514;19;20692;-47
2023/02/28 15:23:05;;;;;;;3.90;2.97;;;;;;;4.55;100.00;99511.13;15283534;19;20057;-50
2023/02/28 15:28:31;;;;;;;3.05;2.58;;;;;;;4.57;100.00;99523.41;15291320;19;20086;-49
2023/02/28 15:34:07;;;;;;;5.13;3.05;;;;;;;4.36;100.00;99522.94;15291845;19;20014;-50
2023/02/28 15:39:32;;;;;;;3.55;2.90;;;;;;;4.07;100.00;99522.03;15289882;19;20038;-52
2023/02/28 15:44:57;;;;;;;4.75;3.20;;;;;;;3.58;100.00;99525.81;15290716;19;20045;-50
2023/02/28 15:50:25;;;;;;;5.47;3.55;;;;;;;3.02;100.00;99518.34;15288889;19;20026;-50
2023/02/28 15:55:49;;;;;;;5.20;3.42;;;;;;;2.75;100.00;99517.13;15279426;19;20026;-51
2023/02/28 16:01:26;;;;;;;5.00;3.40;;;;;;;2.37;100.00;99511.19;15282510;19;20023;-51
2023/02/28 16:06:55;;;;;;;4.57;3.50;;;;;;;2.25;100.00;99518.91;15286186;19;20313;-49
2023/02/28 16:12:20;;;;;;;4.88;3.40;;;;;;;2.21;100.00;99516.47;15288424;19;20011;-47
2023/02/28 16:17:48;;;;;;;4.68;3.55;;;;;;;2.07;100.00;99520.72;15286804;19;20010;-48
2023/02/28 16:23:15;;;;;;;4.68;3.55;;;;;;;1.92;100.00;99521.53;15275753;19;20026;-51
2023/02/28 16:28:44;;;;;;;5.20;3.53;;;;;;;1.76;100.00;99514.34;15275524;19;20026;-51
2023/02/28 16:34:09;;;;;;;3.80;3.20;;;;;;;1.60;100.00;99529.31;15283152;19;20029;-51
2023/02/28 16:39:37;;;;;;;4.35;3.40;;;;;;;1.39;100.00;99540.09;15284977;19;20014;-49
2023/02/28 16:45:03;;;;;;;6.32;3.83;;;;;;;1.07;100.00;99537.22;15285445;19;20090;-51
2023/02/28 16:50:29;;;;;;;7.25;4.07;;;;;;;0.85;100.00;99540.88;15285135;19;20018;-51
2023/02/28 16:55:57;;;;;;;5.20;3.85;;;;;;;0.67;100.00;99550.56;15287429;19;20030;-48
2023/02/28 17:01:23;;;;;;;4.60;4.10;;;;;;;0.48;100.00;99555.84;15284592;19;20497;-50
2023/02/28 17:06:48;;;;;;;5.50;4.07;;;;;;;0.30;100.00;99555.72;15284274;19;20082;-48
2023/02/28 17:12:17;;;;;;;5.43;4.40;;;;;;;0.15;100.00;99561.72;15284053;19;20033;-48
2023/02/28 17:17:43;;;;;;;5.57;4.60;;;;;;;0.03;100.00;99559.59;15284098;19;20090;-51
2023/02/28 17:23:15;;;;;;;5.85;4.55;;;;;;;-0.10;100.00;99568.06;15273341;19;20019;-53
2023/02/28 17:28:43;;;;;;;6.63;4.47;;;;;;;-0.20;100.00;99577.34;15283856;19;20014;-51
2023/02/28 17:34:08;;;;;;;5.07;4.43;;;;;;;-0.28;100.00;99577.66;15276956;19;20007;-48
2023/02/28 17:39:33;;;;;;;5.63;4.68;;;;;;;-0.38;100.00;99582.47;15283804;19;20043;-47
2023/02/28 17:45:00;;;;;;;5.78;4.75;;;;;;;-0.47;100.00;99586.34;15280843;19;20090;-50
2023/02/28 17:50:25;;;;;;;6.05;5.10;;;;;;;-0.55;100.00;99588.44;15281941;19;20014;-46
2023/02/28 17:55:49;;;;;;;7.60;5.18;;;;;;;-0.64;100.00;99589.66;14772592;19;10000499;-46
2023/02/28 18:01:17;;;;;;;6.45;5.53;;;;;;;-0.68;100.00;99596.03;15280229;19;20094;-49
2023/02/28 18:06:49;;;;;;;6.78;4.97;;;;;;;-0.74;100.00;99587.47;15275970;19;20035;-48
2023/02/28 18:12:14;;;;;;;6.13;5.38;;;;;;;-0.82;100.00;99585.13;15284090;19;20039;-50
2023/02/28 18:17:41;;;;;;;8.93;5.57;;;;;;;-0.88;100.00;99582.72;15284003;19;20039;-47
2023/02/28 18:23:17;;;;;;;6.72;5.90;;;;;;;-0.97;100.00;99576.84;15291014;19;20010;-49
2023/02/28 18:28:43;;;;;;;6.90;5.47;;;;;;;-1.03;100.00;99577.09;15292311;19;20019;-49
2023/02/28 18:34:13;;;;;;;6.43;5.75;;;;;;;-1.06;100.00;99574.56;15290545;19;20081;-46
2023/02/28 18:39:39;;;;;;;8.60;6.60;;;;;;;-1.14;100.00;99566.91;15286979;19;20081;-49
2023/02/28 18:45:03;;;;;;;7.75;6.95;;;;;;;-1.18;100.00;99572.41;15295653;19;20015;-50
2023/02/28 18:50:31;;;;;;;7.93;6.80;;;;;;;-1.22;100.00;99574.28;15292479;19;20073;-48
2023/02/28 18:55:55;;;;;;;9.23;6.50;;;;;;;-1.27;100.00;99569.19;15294826;19;20024;-48
2023/02/28 19:01:22;;;;;;;8.93;6.88;;;;;;;-1.34;100.00;99572.97;15291930;19;20078;-52
2023/02/28 19:06:49;;;;;;;7.70;6.90;;;;;;;-1.37;100.00;99578.38;15292332;19;20039;-54
2023/02/28 19:12:16;;;;;;;8.55;7.18;;;;;;;-1.41;100.00;99574.13;15286654;19;20017;-49
2023/02/28 19:17:41;;;;;;;8.30;7.18;;;;;;;-1.43;100.00;99568.91;15290451;19;20023;-48
2023/02/28 19:23:10;;;;;;;8.88;7.57;;;;;;;-1.47;100.00;99571.72;15288517;19;20031;-49
2023/02/28 19:28:37;;;;;;;8.85;7.65;;;;;;;-1.49;100.00;99562.97;15290850;19;20018;-44
2023/02/28 19:34:02;;;;;;;8.98;8.05;;;;;;;-1.51;100.00;99572.75;15289364;19;20028;-50
2023/02/28 19:39:39;;;;;;;9.07;8.00;;;;;;;-1.52;100.00;99571.84;15289882;19;20031;-48
2023/02/28 19:45:08;;;;;;;10.75;8.20;;;;;;;-1.61;100.00;99578.38;15284105;19;20014;-49
2023/02/28 19:50:35;;;;;;;10.48;8.25;;;;;;;-1.69;100.00;99574.28;15289473;19;20032;-50
2023/02/28 19:56:05;;;;;;;8.48;7.65;;;;;;;-1.77;100.00;99583.34;15298603;19;20015;-46
2023/02/28 20:01:29;;;;;;;9.60;8.52;;;;;;;-1.79;100.00;99584.28;15291912;19;20231;-49
2023/02/28 20:06:54;;;;;;;9.38;8.30;;;;;;;-1.81;100.00;99596.69;15289300;19;20479;-45
2023/02/28 20:12:22;;;;;;;10.88;8.43;;;;;;;-1.85;100.00;99590.66;15290055;19;20058;-44
2023/02/28 20:17:47;;;;;;;9.25;8.15;;;;;;;-1.94;100.00;99589.19;15283991;19;20020;-45
2023/02/28 20:23:12;;;;;;;9.05;8.15;;;;;;;-1.97;100.00;99591.97;15286284;19;20114;-46
2023/02/28 20:28:40;;;;;;;9.40;8.23;;;;;;;-2.00;100.00;99592.06;15287642;19;20047;-48
2023/02/28 20:34:05;;;;;;;12.98;8.82;;;;;;;-1.99;100.00;99593.78;15287768;19;20025;-48
2023/02/28 20:39:30;;;;;;;9.35;8.35;;;;;;;-2.02;100.00;99592.13;15285570;19;20038;-49
2023/02/28 20:44:58;;;;;;;9.25;8.20;;;;;;;-2.08;100.00;99596.75;15283728;19;20488;-47
2023/02/28 20:50:23;;;;;;;10.13;8.30;;;;;;;-2.09;100.00;99602.94;15286910;19;20018;-56
2023/02/28 20:55:47;;;;;;;9.43;8.23;;;;;;;-2.15;100.00;99598.75;15285976;19;20021;-47
2023/02/28 21:01:18;;;;;;;9.27;8.27;;;;;;;-2.22;100.00;99598.09;15284092;19;20081;-48
2023/02/28 21:06:46;;;;;;;10.13;8.63;;;;;;;-2.30;100.00;99597.47;15288140;19;20094;-46
2023/02/28 21:12:11;;;;;;;10.73;9.52;;;;;;;-2.35;100.00;99591.47;15285996;19;20026;-48
2023/02/28 21:17:39;;;;;;;11.05;9.93;;;;;;;-2.40;100.00;99585.47;15282615;19;20031;-45
2023/02/28 21:23:05;;;;;;;9.93;8.93;;;;;;;-2.52;100.00;99592.88;15283438;19;20029;-48
2023/02/28 21:28:29;;;;;;;11.85;9.13;;;;;;;-2.57;100.00;99594.81;15284195;19;20041;-46
2023/02/28 21:33:58;;;;;;;11.00;9.68;;;;;;;-2.59;100.00;99609.00;15286035;19;20089;-46
2023/02/28 21:39:28;;;;;;;11.25;9.63;;;;;;;-2.65;100.00;99610.91;15283338;19;20507;-47
2023/02/28 21:44:56;;;;;;;10.57;9.48;;;;;;;-2.73;100.00;99601.47;15283594;19;20018;-46
2023/02/28 21:50:23;;;;;;;11.00;9.90;;;;;;;-2.79;100.00;99605.19;15257892;19;20074;-45
2023/02/28 21:55:48;;;;;;;11.23;10.02;;;;;;;-2.84;100.00;99600.03;15293145;19;20032;-46
2023/02/28 22:01:14;;;;;;;13.45;10.55;;;;;;;-2.89;100.00;99596.72;15295556;19;20018;-45
2023/02/28 22:06:43;;;;;;;12.82;10.40;;;;;;;-2.92;100.00;99593.28;15298904;19;20471;-48
2023/02/28 22:12:07;;;;;;;11.20;10.05;;;;;;;-2.95;100.00;99599.50;15297675;19;20014;-44
2023/02/28 22:17:32;;;;;;;12.07;10.18;;;;;;;-3.09;100.00;99599.94;15295854;19;20014;-44
2023/02/28 22:22:59;;;;;;;11.93;10.30;;;;;;;-3.14;100.00;99604.47;15290958;19;20479;-46
2023/02/28 22:28:26;;;;;;;13.18;10.48;;;;;;;-3.15;100.00;99610.66;15296021;19;20758;-45
2023/02/28 22:33:51;;;;;;;12.07;10.18;;;;;;;-3.17;100.00;99613.34;15296905;19;20018;-44
2023/02/28 22:39:19;;;;;;;13.05;10.60;;;;;;;-3.22;100.00;99612.59;15294995;19;20027;-53
2023/02/28 22:44:45;;;;;;;11.65;10.50;;;;;;;-3.22;100.00;99607.34;15295854;19;20037;-45
2023/02/28 22:50:12;;;;;;;11.90;10.45;;;;;;;-3.24;100.00;99598.63;15293163;19;20070;-45
2023/02/28 22:55:39;;;;;;;12.27;10.43;;;;;;;-3.27;100.00;99609.25;15285668;19;20022;-46
2023/02/28 23:01:08;;;;;;;11.70;10.50;;;;;;;-3.31;100.00;99607.59;15292146;19;20021;-45
2023/02/28 23:06:36;;;;;;;12.40;10.30;;;;;;;-3.37;100.00;99606.00;15294391;19;20031;-47
2023/02/28 23:12:04;;;;;;;10.80;9.55;;;;;;;-3.41;100.00;99614.94;15296296;19;20011;-46
2023/02/28 23:17:29;;;;;;;12.55;10.75;;;;;;;-3.45;100.00;99624.66;15293045;19;20419;-46
2023/02/28 23:22:54;;;;;;;12.25;10.30;;;;;;;-3.47;100.00;99618.56;15288234;19;20018;-45
2023/02/28 23:28:22;;;;;;;11.65;10.18;;;;;;;-3.49;100.00;99620.41;15285837;19;20090;-46
2023/02/28 23:33:47;;;;;;;11.38;10.27;;;;;;;-3.52;100.00;99620.50;15292193;19;20019;-47
2023/02/28 23:39:11;;;;;;;11.30;10.15;;;;;;;-3.57;100.00;99618.00;15290803;19;20021;-45
2023/02/28 23:44:39;;;;;;;12.60;10.82;;;;;;;-3.57;100.00;99614.47;15292336;19;20007;-45
2023/02/28 23:50:10;;;;;;;12.57;10.45;;;;;;;-3.59;100.00;99614.53;15288762;19;20006;-47
2023/02/28 23:55:35;;;;;;;11.95;10.65;;;;;;;-3.60;100.00;99607.53;15291171;19;20025;-45
